Ragtown, Nevada
Current Conditions -  °F | °C
As of 8:56 PM on Sunday 21 Dec 2014 (Local Time) from KNFL Reporting Station
Clear Clear  
Wind Chill: 54°   Ceiling: Unl
Heat Index: 54°   Visibility: 10mi
Dew Point: 40°   Wind: 17mph
Humidity: 59%   Direction: 270°W
Pressure: 30.24"   Gusts: NA
Location:  39.5809°N, 118.333°W
Report Text: KNFL 220456Z AUTO 27015KT 10SM CLR 12/04 A3024 RMK AO2 SLP201 T01220044
Loading
Personal Weather Stations






























Interactive Weather Map New forecast layout! Learn more

10-Day Weather Forecast

Advertisements
Track Severe Weather on mobile